createdAt,value
2023-02-05T00:00:27.085Z,7.20
2023-02-05T00:02:53.774Z,9.00
2023-02-05T00:05:20.416Z,9.63
2023-02-05T00:07:47.056Z,9.30
2023-02-05T00:10:13.752Z,8.77
2023-02-05T00:12:40.457Z,11.57
2023-02-05T00:15:07.640Z,6.72
2023-02-05T00:17:36.199Z,8.95
2023-02-05T00:20:03.963Z,10.98
2023-02-05T00:22:30.710Z,7.13
2023-02-05T00:24:57.331Z,9.38
2023-02-05T00:27:24.118Z,8.95
2023-02-05T00:29:50.762Z,11.55
2023-02-05T00:32:17.482Z,6.60
2023-02-05T00:34:44.126Z,9.40
2023-02-05T00:37:11.083Z,8.82
2023-02-05T00:39:37.786Z,7.53
2023-02-05T00:42:04.451Z,9.80
2023-02-05T00:44:31.205Z,9.07
2023-02-05T00:46:57.920Z,8.15
2023-02-05T00:49:24.562Z,7.70
2023-02-05T00:51:51.315Z,11.63
2023-02-05T00:54:18.020Z,8.18
2023-02-05T00:56:44.659Z,7.32
2023-02-05T00:59:11.333Z,13.52
2023-02-05T01:01:38.037Z,9.57
2023-02-05T01:04:04.757Z,9.30
2023-02-05T01:06:31.945Z,7.10
2023-02-05T01:08:58.628Z,9.93
2023-02-05T01:11:25.389Z,7.43
2023-02-05T01:13:52.111Z,12.13
2023-02-05T01:16:18.796Z,9.85
2023-02-05T01:18:45.512Z,11.07
2023-02-05T01:21:12.354Z,11.65
2023-02-05T01:23:39.043Z,10.10
2023-02-05T01:26:06.318Z,8.43
2023-02-05T01:28:32.992Z,10.05
2023-02-05T01:31:00.357Z,12.93
2023-02-05T01:33:27.084Z,11.23
2023-02-05T01:35:53.722Z,7.80
2023-02-05T01:38:20.372Z,9.45
2023-02-05T01:40:47.026Z,8.63
2023-02-05T01:43:16.809Z,8.18
2023-02-05T01:45:54.612Z,10.02
2023-02-05T01:48:27.443Z,9.02
2023-02-05T01:50:59.425Z,9.65
2023-02-05T01:53:30.098Z,9.07
2023-02-05T01:56:04.573Z,8.25
2023-02-05T01:58:35.812Z,8.13
2023-02-05T02:01:02.676Z,9.17
2023-02-05T02:03:31.639Z,9.30
2023-02-05T02:05:58.984Z,6.93
2023-02-05T02:08:26.226Z,6.22
2023-02-05T02:10:56.239Z,9.77
2023-02-05T02:13:25.692Z,9.48
2023-02-05T02:15:52.388Z,7.90
2023-02-05T02:18:28.949Z,8.55
2023-02-05T02:21:07.947Z,11.55
2023-02-05T02:23:57.099Z,9.80
2023-02-05T02:26:24.711Z,7.72
2023-02-05T02:28:57.406Z,11.52
2023-02-05T02:31:33.171Z,9.32
2023-02-05T02:34:11.684Z,7.60
2023-02-05T02:36:48.886Z,8.93
2023-02-05T02:39:41.832Z,7.65
2023-02-05T02:42:21.912Z,7.28
2023-02-05T02:44:59.073Z,7.90
2023-02-05T02:47:53.653Z,9.23
2023-02-05T02:50:35.534Z,8.43
2023-02-05T02:53:09.282Z,8.40
2023-02-05T02:55:41.774Z,8.95
2023-02-05T02:58:40.177Z,10.63
2023-02-05T03:01:10.065Z,11.10
2023-02-05T03:03:42.299Z,8.23
2023-02-05T03:08:49.684Z,8.77
2023-02-05T03:11:16.853Z,9.68
2023-02-05T03:13:45.033Z,6.38
2023-02-05T03:16:13.935Z,7.38
2023-02-05T03:18:41.281Z,7.82
2023-02-05T03:21:29.256Z,5.60
2023-02-05T03:23:56.423Z,6.88
2023-02-05T03:26:30.362Z,8.07
2023-02-05T03:29:17.291Z,7.43
2023-02-05T03:32:16.084Z,9.77
2023-02-05T03:35:21.708Z,10.18
2023-02-05T03:38:17.258Z,10.00
2023-02-05T03:41:07.121Z,6.63
2023-02-05T03:44:03.474Z,7.95
2023-02-05T03:46:47.618Z,11.27
2023-02-05T03:49:40.263Z,11.60
2023-02-05T03:55:02.897Z,7.75
2023-02-05T03:57:40.198Z,13.65
2023-02-05T04:00:08.294Z,13.63
2023-02-05T04:02:40.884Z,11.40
2023-02-05T04:05:09.803Z,9.85
2023-02-05T04:07:38.155Z,10.98
2023-02-05T04:10:05.489Z,11.90
2023-02-05T04:12:34.675Z,10.75
2023-02-05T04:15:01.580Z,10.60
2023-02-05T04:17:28.512Z,9.27
2023-02-05T04:19:55.427Z,7.88
2023-02-05T04:22:22.248Z,7.13
2023-02-05T04:24:49.000Z,6.65
2023-02-05T04:27:16.853Z,9.90
2023-02-05T04:29:43.519Z,7.95
2023-02-05T04:32:10.604Z,7.55
2023-02-05T04:34:37.378Z,8.70
2023-02-05T04:37:06.499Z,7.63
2023-02-05T04:39:33.430Z,10.88
2023-02-05T04:42:01.726Z,6.43
2023-02-05T04:44:28.708Z,6.65
2023-02-05T04:46:55.386Z,8.60
2023-02-05T04:49:22.118Z,6.15
2023-02-05T04:51:48.768Z,5.30
2023-02-05T04:54:15.483Z,8.25
2023-02-05T04:56:42.124Z,5.05
2023-02-05T04:59:08.798Z,8.75
2023-02-05T05:01:35.536Z,7.18
2023-02-05T05:04:02.285Z,6.15
2023-02-05T05:06:28.967Z,7.30
2023-02-05T05:08:55.637Z,7.20
2023-02-05T05:11:22.309Z,6.15
2023-02-05T05:13:52.163Z,7.88
2023-02-05T05:16:19.297Z,7.18
2023-02-05T05:18:46.444Z,5.88
2023-02-05T05:21:13.460Z,5.45
2023-02-05T05:23:40.108Z,10.73
2023-02-05T05:26:08.705Z,7.43
2023-02-05T05:28:36.682Z,8.35
2023-02-05T05:31:24.469Z,10.32
2023-02-05T05:33:51.413Z,8.20
2023-02-05T05:36:18.636Z,7.50
2023-02-05T05:38:45.468Z,10.55
2023-02-05T05:41:54.853Z,7.53
2023-02-05T05:44:21.534Z,7.97
2023-02-05T05:46:48.162Z,11.55
2023-02-05T05:49:14.808Z,6.88
2023-02-05T05:51:41.486Z,10.35
2023-02-05T05:54:08.218Z,7.72
2023-02-05T05:56:36.138Z,9.63
2023-02-05T05:59:03.018Z,5.53
2023-02-05T06:01:29.740Z,8.55
2023-02-05T06:03:56.438Z,9.40
2023-02-05T06:06:23.154Z,10.13
2023-02-05T06:08:49.820Z,10.23
2023-02-05T06:11:16.509Z,7.15
2023-02-05T06:13:43.281Z,7.68
2023-02-05T06:16:10.064Z,6.75
2023-02-05T06:18:36.813Z,9.75
2023-02-05T06:21:05.748Z,8.68
2023-02-05T06:23:34.059Z,10.23
2023-02-05T06:26:00.874Z,6.45
2023-02-05T06:28:27.528Z,6.22
2023-02-05T06:30:54.264Z,11.05
2023-02-05T06:33:21.016Z,6.97
2023-02-05T06:35:47.770Z,7.40
2023-02-05T06:38:14.519Z,7.72
2023-02-05T06:40:41.487Z,7.57
2023-02-05T06:43:08.241Z,6.50
2023-02-05T06:45:35.229Z,9.43
2023-02-05T06:48:02.110Z,7.88
2023-02-05T06:50:28.857Z,9.95
2023-02-05T06:52:55.554Z,7.68
2023-02-05T06:55:22.269Z,5.43
2023-02-05T06:57:49.023Z,10.95
2023-02-05T07:00:16.693Z,12.02
2023-02-05T07:02:43.551Z,10.98
2023-02-05T07:05:10.418Z,7.13
2023-02-05T07:07:37.235Z,7.22
2023-02-05T07:10:04.407Z,8.52
2023-02-05T07:12:31.270Z,8.40
2023-02-05T07:14:57.946Z,8.02
2023-02-05T07:17:24.795Z,10.25
2023-02-05T07:19:51.510Z,7.45
2023-02-05T07:22:18.395Z,14.65
2023-02-05T07:24:45.115Z,11.20
2023-02-05T07:27:11.815Z,6.47
2023-02-05T07:29:38.449Z,6.68
2023-02-05T07:32:05.166Z,8.73
2023-02-05T07:34:31.898Z,5.72
2023-02-05T07:36:58.533Z,13.27
2023-02-05T07:39:25.274Z,8.70
2023-02-05T07:41:53.511Z,8.60
2023-02-05T07:44:28.132Z,8.73
2023-02-05T07:46:54.968Z,15.05
2023-02-05T07:49:22.011Z,12.05
2023-02-05T07:51:48.851Z,11.43
2023-02-05T07:54:15.697Z,14.50
2023-02-05T07:56:42.389Z,8.73
2023-02-05T07:59:09.331Z,9.27
2023-02-05T08:01:36.005Z,10.23
2023-02-05T08:04:02.761Z,8.85
2023-02-05T08:06:29.530Z,9.57
2023-02-05T08:08:56.890Z,10.13
2023-02-05T08:11:23.633Z,14.00
2023-02-05T08:13:50.415Z,9.88
2023-02-05T08:16:17.145Z,10.40
2023-02-05T08:18:48.757Z,7.57
2023-02-05T08:21:15.731Z,11.48
2023-02-05T08:23:42.494Z,10.20
2023-02-05T08:26:09.153Z,9.27
2023-02-05T08:28:35.869Z,10.60
2023-02-05T08:31:09.761Z,11.45
2023-02-05T08:33:36.430Z,14.93
2023-02-05T08:36:03.276Z,10.88
2023-02-05T08:38:29.954Z,9.65
2023-02-05T08:40:57.840Z,9.93
2023-02-05T08:43:24.738Z,9.40
2023-02-05T08:45:51.488Z,9.18
2023-02-05T08:48:18.415Z,11.18
2023-02-05T08:50:46.292Z,11.05
2023-02-05T08:53:13.103Z,9.98
2023-02-05T08:55:39.778Z,9.70
2023-02-05T08:58:06.465Z,10.25
2023-02-05T09:00:33.260Z,10.60
2023-02-05T09:02:59.946Z,10.02
2023-02-05T09:05:26.578Z,11.40
2023-02-05T09:07:53.257Z,8.63
2023-02-05T09:10:19.992Z,12.52
2023-02-05T09:12:48.230Z,11.20
2023-02-05T09:15:14.910Z,9.20
2023-02-05T09:17:41.626Z,10.23
2023-02-05T09:20:09.324Z,9.93
2023-02-05T09:22:36.059Z,10.82
2023-02-05T09:25:02.754Z,11.25
2023-02-05T09:27:30.403Z,12.48
2023-02-05T09:29:57.115Z,16.77
2023-02-05T09:32:24.486Z,11.70
2023-02-05T09:34:51.134Z,12.25
2023-02-05T09:37:18.082Z,10.85
2023-02-05T09:40:18.900Z,10.90
2023-02-05T09:42:38.456Z,10.43
2023-02-05T09:45:39.955Z,9.48
2023-02-05T09:48:38.170Z,12.23
2023-02-05T09:51:09.584Z,12.43
2023-02-05T09:53:42.788Z,14.88
2023-02-05T09:56:13.475Z,12.82
2023-02-05T09:58:47.653Z,14.15
2023-02-05T10:01:22.529Z,11.73
2023-02-05T10:03:59.137Z,12.05
2023-02-05T10:06:41.904Z,13.00
2023-02-05T10:09:24.455Z,14.77
2023-02-05T10:12:00.307Z,13.98
2023-02-05T10:15:09.442Z,11.65
2023-02-05T10:18:18.064Z,13.95
2023-02-05T10:20:52.291Z,13.85
2023-02-05T10:23:51.397Z,14.23
2023-02-05T10:26:18.146Z,12.13
2023-02-05T10:29:16.074Z,15.45
2023-02-05T10:32:09.988Z,12.10
2023-02-05T10:34:42.790Z,16.52
2023-02-05T10:37:18.418Z,14.10
2023-02-05T10:39:46.294Z,14.48
2023-02-05T10:42:26.652Z,18.95
2023-02-05T10:45:12.806Z,11.20
2023-02-05T10:47:59.364Z,17.10
2023-02-05T10:50:46.064Z,17.52
2023-02-05T10:53:16.496Z,22.10
2023-02-05T10:55:43.137Z,15.48
2023-02-05T10:58:43.993Z,17.20
2023-02-05T11:01:20.712Z,14.48
2023-02-05T11:04:00.367Z,15.75
2023-02-05T11:06:31.367Z,14.90
2023-02-05T11:08:58.053Z,16.42
2023-02-05T11:11:29.552Z,16.13
2023-02-05T11:14:02.378Z,19.35
2023-02-05T11:16:40.868Z,24.08
2023-02-05T11:19:20.220Z,16.55
2023-02-05T11:21:59.532Z,19.30
2023-02-05T11:24:36.162Z,19.42
2023-02-05T11:27:27.775Z,21.17
2023-02-05T11:29:56.856Z,22.38
2023-02-05T11:32:38.315Z,22.90
2023-02-05T11:35:09.975Z,20.95
2023-02-05T11:37:39.569Z,12.73
2023-02-05T11:40:17.381Z,13.50
2023-02-05T11:42:55.395Z,15.23
2023-02-05T11:45:23.552Z,18.08
2023-02-05T11:47:50.382Z,15.82
2023-02-05T11:50:24.144Z,19.48
2023-02-05T11:52:54.571Z,17.83
2023-02-05T11:55:53.539Z,21.00
2023-02-05T11:58:36.476Z,14.65
2023-02-05T12:01:21.692Z,20.75
2023-02-05T12:04:02.091Z,13.95
2023-02-05T12:06:38.395Z,20.17
2023-02-05T12:09:09.913Z,15.80
2023-02-05T12:12:37.715Z,14.07
2023-02-05T12:15:04.431Z,18.85
2023-02-05T12:17:56.781Z,21.85
2023-02-05T12:20:34.192Z,22.80
2023-02-05T12:23:24.555Z,19.02
2023-02-05T12:26:00.355Z,23.15
2023-02-05T12:28:42.080Z,22.90
2023-02-05T12:31:22.237Z,15.65
2023-02-05T12:34:36.218Z,16.65
2023-02-05T12:37:18.049Z,16.23
2023-02-05T12:40:30.006Z,21.17
2023-02-05T12:43:01.601Z,18.20
2023-02-05T12:45:45.911Z,23.90
2023-02-05T12:48:27.521Z,17.98
2023-02-05T12:51:01.554Z,19.45
2023-02-05T12:53:38.901Z,17.70
2023-02-05T12:56:24.150Z,13.68
2023-02-05T12:58:56.037Z,19.85
2023-02-05T13:01:31.688Z,19.52
2023-02-05T13:04:01.532Z,15.80
2023-02-05T13:06:43.186Z,18.75
2023-02-05T13:09:19.359Z,14.32
2023-02-05T13:12:07.211Z,16.17
2023-02-05T13:14:47.679Z,20.13
2023-02-05T13:17:20.376Z,18.48
2023-02-05T13:19:57.193Z,22.60
2023-02-05T13:23:09.610Z,24.63
2023-02-05T13:25:40.213Z,21.83
2023-02-05T13:28:42.590Z,27.40
2023-02-05T13:31:40.692Z,27.00
2023-02-05T13:34:09.907Z,34.28
2023-02-05T13:37:01.429Z,33.38
2023-02-05T13:39:48.698Z,29.67
2023-02-05T13:43:11.564Z,29.58
2023-02-05T13:48:29.431Z,28.80
2023-02-05T13:51:38.890Z,33.25
2023-02-05T13:54:23.487Z,39.27
2023-02-05T13:57:18.267Z,31.77
2023-02-05T13:59:52.875Z,33.75
2023-02-05T14:02:33.666Z,36.30
2023-02-05T14:05:02.743Z,37.47
2023-02-05T14:07:33.916Z,36.80
2023-02-05T14:10:02.616Z,31.67
2023-02-05T14:12:34.039Z,32.33
2023-02-05T14:15:19.669Z,32.13
2023-02-05T14:17:48.498Z,40.60
2023-02-05T14:20:35.497Z,42.08
2023-02-05T14:23:11.595Z,33.70
2023-02-05T14:25:45.953Z,35.60
2023-02-05T14:28:15.834Z,31.60
2023-02-05T14:30:49.126Z,38.20
2023-02-05T14:33:37.437Z,36.15
2023-02-05T14:36:25.000Z,33.20
2023-02-05T14:38:51.616Z,35.40
2023-02-05T14:41:21.965Z,37.83
2023-02-05T14:44:04.678Z,32.38
2023-02-05T14:46:39.741Z,34.40
2023-02-05T14:49:19.085Z,34.78
2023-02-05T14:52:25.384Z,38.65
2023-02-05T14:54:59.756Z,38.70
2023-02-05T14:57:51.677Z,37.80
2023-02-05T15:00:25.737Z,43.80
2023-02-05T15:03:16.525Z,56.92
2023-02-05T15:05:48.840Z,69.43
2023-02-05T15:08:24.772Z,50.08
2023-02-05T15:11:04.331Z,43.00
2023-02-05T15:13:32.093Z,41.70
2023-02-05T15:16:16.986Z,40.80
2023-02-05T15:18:52.878Z,48.10
2023-02-05T15:21:33.304Z,44.42
2023-02-05T15:24:13.637Z,40.88
2023-02-05T15:27:15.419Z,38.10
2023-02-05T15:29:47.267Z,42.80
2023-02-05T15:32:23.918Z,44.85
2023-02-05T15:35:07.434Z,38.97
2023-02-05T15:37:43.724Z,47.92
2023-02-05T15:40:26.890Z,41.70
2023-02-05T15:42:58.479Z,41.90
2023-02-05T15:45:29.652Z,41.38
2023-02-05T15:48:13.010Z,41.60
2023-02-05T15:50:52.754Z,40.33
2023-02-05T15:53:32.908Z,40.08
2023-02-05T15:56:19.265Z,38.63
2023-02-05T15:58:51.923Z,40.65
2023-02-05T16:01:30.644Z,43.90
2023-02-05T16:03:57.751Z,33.28
2023-02-05T16:06:27.029Z,38.33
2023-02-05T16:08:54.079Z,33.80
2023-02-05T16:11:35.000Z,31.50
2023-02-05T16:14:13.551Z,32.50
2023-02-05T16:16:47.226Z,33.50
2023-02-05T16:19:21.116Z,35.47
2023-02-05T16:21:59.040Z,38.45
2023-02-05T16:24:33.406Z,35.17
2023-02-05T16:27:09.734Z,39.78
2023-02-05T16:29:48.632Z,34.75
2023-02-05T16:32:38.286Z,37.30
2023-02-05T16:35:07.914Z,41.67
2023-02-05T16:37:39.772Z,45.45
2023-02-05T16:40:09.175Z,39.78
2023-02-05T16:42:44.076Z,40.88
2023-02-05T16:45:10.770Z,47.63
2023-02-05T16:47:37.800Z,42.83
2023-02-05T16:50:32.985Z,45.08
2023-02-05T16:52:59.845Z,45.67
2023-02-05T16:55:30.852Z,52.00
2023-02-05T16:58:05.742Z,47.20
2023-02-05T17:00:34.286Z,49.72
2023-02-05T17:03:17.458Z,46.13
2023-02-05T17:05:44.593Z,48.10
2023-02-05T17:08:12.741Z,47.90
2023-02-05T17:10:48.974Z,57.00
2023-02-05T17:13:26.709Z,45.03
2023-02-05T17:15:53.541Z,52.75
2023-02-05T17:18:21.777Z,40.95
2023-02-05T17:20:48.887Z,48.83
2023-02-05T17:23:17.030Z,48.08
2023-02-05T17:25:46.723Z,54.15
2023-02-05T17:28:17.093Z,48.38
2023-02-05T17:30:45.623Z,49.00
2023-02-05T17:33:19.548Z,64.50
2023-02-05T17:35:46.395Z,53.67
2023-02-05T17:38:13.592Z,55.80
2023-02-05T17:40:40.433Z,50.80
2023-02-05T17:43:07.111Z,47.30
2023-02-05T17:45:39.507Z,49.03
2023-02-05T17:48:07.909Z,50.70
2023-02-05T17:50:35.856Z,42.28
2023-02-05T17:53:03.424Z,45.95
2023-02-05T17:55:30.684Z,39.67
2023-02-05T17:57:57.469Z,40.45
2023-02-05T18:00:26.758Z,38.80
2023-02-05T18:02:53.696Z,39.78
2023-02-05T18:05:21.014Z,40.40
2023-02-05T18:07:54.850Z,39.70
2023-02-05T18:10:24.941Z,41.00
2023-02-05T18:12:52.226Z,34.75
2023-02-05T18:15:19.432Z,36.88
2023-02-05T18:17:46.373Z,36.70
2023-02-05T18:20:14.698Z,44.63
2023-02-05T18:22:41.506Z,42.80
2023-02-05T18:25:08.453Z,38.95
2023-02-05T18:27:35.215Z,36.67
2023-02-05T18:30:02.056Z,39.00
2023-02-05T18:32:29.045Z,42.35
2023-02-05T18:34:55.736Z,40.97
2023-02-05T18:37:22.493Z,48.38
2023-02-05T18:39:50.688Z,43.58
2023-02-05T18:42:17.563Z,48.67
2023-02-05T18:44:44.233Z,45.25
2023-02-05T18:47:11.806Z,55.95
2023-02-05T18:49:39.355Z,56.40
2023-02-05T18:52:07.259Z,51.35
2023-02-05T18:54:34.415Z,50.60
2023-02-05T18:57:01.246Z,48.45
2023-02-05T18:59:27.939Z,48.20
2023-02-05T19:01:54.681Z,52.35
2023-02-05T19:04:21.452Z,52.45
2023-02-05T19:06:53.676Z,49.60
2023-02-05T19:11:48.835Z,41.90
2023-02-05T19:14:17.351Z,53.00
2023-02-05T19:16:44.804Z,44.40
2023-02-05T19:19:14.279Z,46.75
2023-02-05T19:21:42.270Z,41.13
2023-02-05T19:24:10.431Z,47.03
2023-02-05T19:26:38.678Z,45.88
2023-02-05T19:29:07.861Z,50.70
2023-02-05T19:31:36.749Z,46.22
2023-02-05T19:34:04.052Z,48.58
2023-02-05T19:36:31.515Z,43.20
2023-02-05T19:39:00.263Z,42.22
2023-02-05T19:41:27.783Z,43.75
2023-02-05T19:44:00.107Z,45.08
2023-02-05T19:46:31.311Z,42.83
2023-02-05T19:49:02.412Z,45.53
2023-02-05T19:51:29.326Z,44.45
2023-02-05T19:53:57.859Z,46.35
2023-02-05T19:56:25.054Z,43.10
2023-02-05T19:58:53.662Z,42.75
2023-02-05T20:01:24.876Z,47.58
2023-02-05T20:03:53.432Z,47.50
2023-02-05T20:06:21.889Z,47.55
2023-02-05T20:08:48.589Z,42.15
2023-02-05T20:11:16.166Z,42.05
2023-02-05T20:13:43.369Z,43.45
2023-02-05T20:16:16.450Z,36.28
2023-02-05T20:18:44.337Z,45.00
2023-02-05T20:21:18.450Z,44.35
2023-02-05T20:23:46.202Z,38.38
2023-02-05T20:26:14.352Z,40.90
2023-02-05T20:29:01.088Z,36.75
2023-02-05T20:31:35.176Z,37.88
2023-02-05T20:34:06.768Z,43.60
2023-02-05T20:36:34.888Z,40.65
2023-02-05T20:39:05.394Z,92.90
2023-02-05T20:41:32.636Z,39.13
2023-02-05T20:43:59.486Z,51.55
2023-02-05T20:46:26.601Z,40.38
2023-02-05T20:48:53.900Z,32.10
2023-02-05T20:51:22.753Z,35.25
2023-02-05T20:53:49.811Z,38.78
2023-02-05T20:56:20.246Z,37.75
2023-02-05T20:58:47.440Z,34.60
2023-02-05T21:01:18.924Z,43.95
2023-02-05T21:03:48.570Z,31.80
2023-02-05T21:06:18.922Z,41.60
2023-02-05T21:08:47.234Z,43.75
2023-02-05T21:11:14.983Z,36.28
2023-02-05T21:13:43.041Z,36.50
2023-02-05T21:16:10.305Z,33.67
2023-02-05T21:18:38.361Z,41.67
2023-02-05T21:21:10.793Z,43.22
2023-02-05T21:23:37.513Z,42.42
2023-02-05T21:26:05.136Z,43.80
2023-02-05T21:28:32.657Z,42.60
2023-02-05T21:31:08.432Z,36.70
2023-02-05T21:33:35.616Z,45.28
2023-02-05T21:36:07.599Z,38.75
2023-02-05T21:38:35.444Z,34.00
2023-02-05T21:41:15.138Z,33.28
2023-02-05T21:43:42.062Z,43.70
2023-02-05T21:46:11.813Z,40.88
2023-02-05T21:48:38.513Z,36.92
2023-02-05T21:51:10.933Z,42.70
2023-02-05T21:53:37.695Z,31.45
2023-02-05T21:56:06.380Z,36.15
2023-02-05T21:58:34.713Z,33.33
2023-02-05T22:01:29.194Z,29.45
2023-02-05T22:06:42.082Z,33.15
2023-02-05T22:09:11.519Z,46.92
2023-02-05T22:11:41.337Z,38.40
2023-02-05T22:14:09.035Z,40.20
2023-02-05T22:16:36.299Z,36.28
2023-02-05T22:19:04.568Z,35.40
2023-02-05T22:21:34.697Z,27.95
2023-02-05T22:24:02.636Z,28.90
2023-02-05T22:26:33.101Z,33.67
2023-02-05T22:29:01.011Z,26.63
2023-02-05T22:31:28.731Z,44.65
2023-02-05T22:33:55.962Z,28.55
2023-02-05T22:36:27.934Z,27.52
2023-02-05T22:38:55.328Z,29.40
2023-02-05T22:41:31.377Z,27.33
2023-02-05T22:43:59.753Z,24.23
2023-02-05T22:46:32.126Z,26.85
2023-02-05T22:49:01.352Z,38.20
2023-02-05T22:51:31.542Z,34.70
2023-02-05T22:53:59.307Z,31.85
2023-02-05T22:56:26.966Z,39.25
2023-02-05T22:58:54.285Z,31.02
2023-02-05T23:01:27.897Z,41.47
2023-02-05T23:03:55.449Z,27.98
2023-02-05T23:06:33.621Z,32.88
2023-02-05T23:09:16.350Z,31.67
2023-02-05T23:11:43.906Z,26.98
2023-02-05T23:14:12.660Z,29.27
2023-02-05T23:16:41.594Z,26.40
2023-02-05T23:19:13.327Z,23.35
2023-02-05T23:21:40.440Z,28.77
2023-02-05T23:24:07.398Z,29.40
2023-02-05T23:26:41.778Z,39.25
2023-02-05T23:29:11.014Z,26.50
2023-02-05T23:31:38.169Z,32.33
2023-02-05T23:34:05.315Z,31.15
2023-02-05T23:36:32.185Z,33.30
2023-02-05T23:38:59.186Z,39.00
2023-02-05T23:41:39.554Z,31.48
2023-02-05T23:44:12.255Z,34.20
2023-02-05T23:46:40.264Z,46.10
2023-02-05T23:49:07.286Z,27.88
2023-02-05T23:51:34.150Z,29.42
2023-02-05T23:54:01.118Z,44.03
2023-02-05T23:56:28.022Z,33.72
2023-02-05T23:58:54.909Z,52.80
